Xiamen, China
Current Conditions -  °F | °C
As of 11:00 AM on Saturday 20 Dec 2014 (Local Time) from ZSAM Reporting Station
Clear Clear  
Wind Chill: 63°   Ceiling: Unl
Heat Index: 63°   Visibility: 6mi
Dew Point: 36°   Wind: 11mph
Humidity: 37%   Direction: 30°NNE
Pressure: 30.21"   Gusts: NA
Location:  24.45°N, 118.08°E
Report Text: ZSAM 200300Z 03005MPS 360V060 CAVOK 17/02 Q1023 NOSIG
Loading
Personal Weather Stations






























Interactive Weather Map New forecast layout! Learn more

10-Day Weather Forecast

Advertisements
Track Severe Weather on mobile